createdAt,value
2019-02-04T15:40:41.409Z,7.50
2019-02-04T15:43:26.250Z,6.20
2019-02-04T15:45:59.421Z,6.93
2019-02-04T15:48:29.333Z,8.40
2019-02-04T15:50:59.216Z,10.00
2019-02-04T15:53:27.555Z,9.27
2019-02-04T15:55:55.985Z,8.67
2019-02-04T15:58:24.342Z,7.90
2019-02-04T16:00:52.668Z,8.07
2019-02-04T16:03:21.121Z,7.13
2019-02-04T16:05:49.441Z,8.00
2019-02-04T16:08:18.067Z,7.20
2019-02-04T16:10:46.437Z,8.90
2019-02-04T16:13:14.751Z,7.43
2019-02-04T16:15:43.575Z,7.30
2019-02-04T16:18:11.888Z,7.37
2019-02-04T16:20:40.315Z,7.77
2019-02-04T16:23:08.716Z,7.50
2019-02-04T16:25:37.127Z,7.53
2019-02-04T16:28:05.522Z,9.10
2019-02-04T16:30:33.945Z,9.50
2019-02-04T16:33:02.362Z,9.53
2019-02-04T16:35:30.701Z,10.27
2019-02-04T16:37:59.084Z,9.83
2019-02-04T16:40:27.546Z,9.53
2019-02-04T16:42:55.935Z,9.50
2019-02-04T16:45:24.433Z,9.43
2019-02-04T16:47:53.365Z,12.30
2019-02-04T16:50:25.662Z,11.33
2019-02-04T16:52:54.079Z,10.30
2019-02-04T16:55:22.494Z,13.13
2019-02-04T16:57:50.927Z,9.37
2019-02-04T17:00:20.524Z,11.33
2019-02-04T17:02:49.328Z,9.40
2019-02-04T17:05:18.321Z,10.37
2019-02-04T17:07:46.696Z,12.30
2019-02-04T17:10:19.161Z,10.50
2019-02-04T17:12:47.597Z,10.03
2019-02-04T17:15:16.019Z,9.50
2019-02-04T17:17:44.754Z,9.97
2019-02-04T17:20:14.637Z,9.63
2019-02-04T17:22:43.045Z,10.53
2019-02-04T17:25:11.386Z,9.07
2019-02-04T17:27:39.783Z,9.57
2019-02-04T17:30:21.705Z,14.47
2019-02-04T17:32:50.193Z,14.17
2019-02-04T17:35:18.506Z,15.00
2019-02-04T17:37:46.933Z,14.90
2019-02-04T17:40:16.333Z,12.27
2019-02-04T17:42:44.782Z,12.57
2019-02-04T17:45:14.565Z,10.77
2019-02-04T17:47:43.017Z,11.37
2019-02-04T17:50:12.810Z,13.00
2019-02-04T17:52:41.322Z,13.67
2019-02-04T17:55:11.506Z,14.40
2019-02-04T17:57:39.933Z,15.03
2019-02-04T18:00:11.659Z,12.87
2019-02-04T18:02:40.139Z,12.90
2019-02-04T18:05:08.526Z,15.77
2019-02-04T18:07:36.832Z,13.50
2019-02-04T18:10:06.724Z,14.57
2019-02-04T18:12:35.130Z,14.10
2019-02-04T18:15:05.842Z,13.60
2019-02-04T18:17:34.252Z,12.60
2019-02-04T18:20:02.676Z,13.17
2019-02-04T18:22:30.990Z,13.20
2019-02-04T18:24:59.359Z,12.53
2019-02-04T18:27:27.673Z,13.07
2019-02-04T18:29:56.161Z,11.73
2019-02-04T18:32:24.515Z,11.20
2019-02-04T18:34:52.942Z,11.60
2019-02-04T18:37:21.771Z,11.77
2019-02-04T18:39:50.097Z,15.83
2019-02-04T18:42:18.535Z,14.07
2019-02-04T18:44:47.170Z,14.50
2019-02-04T18:47:15.528Z,12.00
2019-02-04T18:49:43.874Z,13.00
2019-02-04T18:52:12.277Z,11.30
2019-02-04T18:54:41.080Z,12.90
2019-02-04T18:57:09.515Z,12.90
2019-02-04T18:59:38.358Z,10.87
2019-02-04T19:02:06.769Z,10.57
2019-02-04T19:04:36.630Z,11.27
2019-02-04T19:07:05.159Z,11.63
2019-02-04T19:09:33.487Z,12.43
2019-02-04T19:12:01.828Z,13.20
2019-02-04T19:14:30.582Z,13.10
2019-02-04T19:16:58.972Z,15.03
2019-02-04T19:19:27.413Z,15.23
2019-02-04T19:21:55.740Z,13.30
2019-02-04T19:24:24.157Z,11.17
2019-02-04T19:26:54.099Z,12.90
2019-02-04T19:29:22.462Z,11.80
2019-02-04T19:31:50.887Z,11.87
2019-02-04T19:34:19.258Z,11.87
2019-02-04T19:36:47.619Z,12.80
2019-02-04T19:39:16.026Z,13.10
2019-02-04T19:41:44.528Z,13.40
2019-02-04T19:44:12.930Z,12.03
2019-02-04T19:46:41.874Z,12.80
2019-02-04T19:49:10.212Z,12.23
2019-02-04T19:51:38.553Z,13.53
2019-02-04T19:54:06.965Z,12.20
2019-02-04T19:56:35.394Z,14.37
2019-02-04T19:59:04.111Z,13.40
2019-02-04T20:01:32.492Z,14.70
2019-02-04T20:04:00.821Z,15.10
2019-02-04T20:06:29.172Z,14.07
2019-02-04T20:08:57.525Z,13.30
2019-02-04T20:11:25.980Z,13.87
2019-02-04T20:13:54.346Z,14.20
2019-02-04T20:16:22.736Z,14.50
2019-02-04T20:18:51.650Z,14.23
2019-02-04T20:21:19.975Z,14.57
2019-02-04T20:23:48.346Z,13.43
2019-02-04T20:26:16.681Z,13.50
2019-02-04T20:28:45.063Z,12.87
2019-02-04T20:31:13.474Z,13.80
2019-02-04T20:33:41.902Z,14.00
2019-02-04T20:36:10.596Z,14.53
2019-02-04T20:38:38.936Z,15.50
2019-02-04T20:41:07.357Z,13.93
2019-02-04T20:43:35.711Z,12.70
2019-02-04T20:46:04.139Z,13.87
2019-02-04T20:48:32.538Z,13.73
2019-02-04T20:51:00.991Z,13.50
2019-02-04T20:53:29.304Z,12.30
2019-02-04T20:55:57.723Z,12.07
2019-02-04T20:58:26.070Z,13.53
2019-02-04T21:00:54.505Z,12.53
2019-02-04T21:03:22.867Z,12.10
2019-02-04T21:05:51.517Z,12.50
2019-02-04T21:08:21.819Z,12.93
2019-02-04T21:10:50.705Z,14.23
2019-02-04T21:13:19.041Z,13.83
2019-02-04T21:15:47.447Z,13.47
2019-02-04T21:18:15.910Z,12.60
2019-02-04T21:20:44.518Z,11.47
2019-02-04T21:23:13.234Z,12.63
2019-02-04T21:25:41.651Z,13.57
2019-02-04T21:28:10.071Z,12.30
2019-02-04T21:30:39.658Z,12.87
2019-02-04T21:33:08.189Z,12.20
2019-02-04T21:35:36.659Z,12.30
2019-02-04T21:38:05.247Z,12.63
2019-02-04T21:40:33.718Z,12.20
2019-02-04T21:43:02.049Z,12.77
2019-02-04T21:45:30.500Z,12.70
2019-02-04T21:47:58.894Z,13.17
2019-02-04T21:50:27.807Z,13.40
2019-02-04T21:52:56.199Z,13.40
2019-02-04T21:55:25.074Z,12.37
2019-02-04T21:57:53.464Z,12.27
2019-02-04T22:00:32.602Z,12.83
2019-02-04T22:03:01.038Z,14.00
2019-02-04T22:05:30.787Z,13.70
2019-02-04T22:07:59.523Z,14.40
2019-02-04T22:10:28.784Z,14.33
2019-02-04T22:12:57.210Z,14.23
2019-02-04T22:15:25.693Z,14.57
2019-02-04T22:17:54.138Z,13.50
2019-02-04T22:20:22.517Z,12.83
2019-02-04T22:22:51.042Z,15.10
2019-02-04T22:25:20.643Z,14.10
2019-02-04T22:27:49.078Z,16.23
2019-02-04T22:30:18.600Z,14.40
2019-02-04T22:32:47.138Z,13.83
2019-02-04T22:35:15.534Z,14.80
2019-02-04T22:37:44.002Z,14.30
2019-02-04T22:40:16.795Z,15.60
2019-02-04T22:42:45.303Z,14.97
2019-02-04T22:45:14.822Z,15.10
2019-02-04T22:47:43.237Z,15.70
2019-02-04T22:50:13.365Z,15.53
2019-02-04T22:52:41.773Z,14.60
2019-02-04T22:55:10.294Z,14.37
2019-02-04T22:57:38.701Z,14.70
2019-02-04T23:00:11.635Z,14.23
2019-02-04T23:02:40.039Z,14.47
2019-02-04T23:05:08.444Z,14.73
2019-02-04T23:07:36.867Z,13.43
2019-02-04T23:10:06.751Z,15.07
2019-02-04T23:12:35.106Z,13.90
2019-02-04T23:15:04.963Z,14.13
2019-02-04T23:17:33.459Z,14.47
2019-02-04T23:20:01.868Z,13.87
2019-02-04T23:22:30.282Z,13.13
2019-02-04T23:24:58.640Z,14.30
2019-02-04T23:27:26.992Z,13.73
2019-02-04T23:29:55.322Z,15.00
2019-02-04T23:32:23.698Z,15.20
2019-02-04T23:34:52.073Z,15.10
2019-02-04T23:37:20.895Z,13.47
2019-02-04T23:39:49.410Z,16.57
2019-02-04T23:42:18.172Z,14.93
2019-02-04T23:44:46.632Z,15.80
2019-02-04T23:47:15.108Z,17.90
2019-02-04T23:49:43.462Z,15.73
2019-02-04T23:52:11.886Z,15.27
2019-02-04T23:54:40.253Z,14.53
2019-02-04T23:57:08.884Z,15.73
2019-02-04T23:59:37.256Z,16.37
